Time;durP1;ratioP1;P1;durP2;ratioP2;P2;SDS_P1;SDS_P2;PMS_P1;PMS_P2;Temp;Humidity;BMP_temperature;BMP_pressure;BME280_temperature;BME280_humidity;BME280_pressure;Samples;Min_cycle;Max_cycle;Signal;HPM_P1;HPM_P2
2023/11/27 00:02:22;;;;;;;6.70;6.03;;;2.10;99.90;;;;;;5118584;28;20660;-39
2023/11/27 00:04:51;;;;;;;7.97;5.23;;;2.10;99.90;;;;;;5100406;28;20883;-41
2023/11/27 00:07:16;;;;;;;6.13;5.10;;;2.10;99.90;;;;;;5118229;28;20432;-40
2023/11/27 00:09:42;;;;;;;6.77;5.50;;;2.10;99.90;;;;;;5118020;28;20509;-39
2023/11/27 00:12:08;;;;;;;6.37;5.70;;;2.10;99.90;;;;;;5118521;28;20263;-38
2023/11/27 00:14:34;;;;;;;9.03;6.20;;;2.10;99.90;;;;;;5118153;28;20506;-38
2023/11/27 00:17:00;;;;;;;6.27;5.67;;;2.10;99.90;;;;;;5118329;28;20703;-39
2023/11/27 00:19:26;;;;;;;6.07;5.47;;;2.10;99.90;;;;;;5100177;28;20494;-39
2023/11/27 00:21:52;;;;;;;7.23;5.23;;;2.10;99.90;;;;;;5118104;28;20453;-39
2023/11/27 00:24:18;;;;;;;5.30;4.40;;;2.10;99.90;;;;;;5118184;28;20183;-39
2023/11/27 00:26:44;;;;;;;6.43;5.03;;;2.10;99.90;;;;;;5117856;28;20410;-39
2023/11/27 00:29:09;;;;;;;4.87;4.40;;;2.10;99.90;;;;;;5117304;28;20417;-42
2023/11/27 00:31:35;;;;;;;10.07;6.57;;;2.60;1.00;;;;;;5117806;28;20296;-42
2023/11/27 00:34:01;;;;;;;7.30;5.37;;;3.50;1.00;;;;;;5117385;28;20225;-43
2023/11/27 00:36:27;;;;;;;10.67;7.20;;;4.20;1.00;;;;;;5116979;28;20180;-42
2023/11/27 00:38:52;;;;;;;8.10;6.43;;;4.80;1.00;;;;;;5117722;28;20414;-42
2023/11/27 00:41:18;;;;;;;7.80;6.70;;;5.30;1.00;;;;;;5117742;28;20168;-46
2023/11/27 00:43:44;;;;;;;8.77;5.53;;;5.70;1.00;;;;;;5117609;28;20184;-41
2023/11/27 00:46:10;;;;;;;8.93;6.13;;;6.10;1.00;;;;;;5117671;28;20498;-42
2023/11/27 00:48:36;;;;;;;5.40;4.90;;;6.40;1.00;;;;;;5116971;28;20838;-42
2023/11/27 00:51:03;;;;;;;5.50;4.50;;;6.50;1.00;;;;;;5115311;28;20692;-42
2023/11/27 00:53:28;;;;;;;4.13;3.80;;;6.40;99.90;;;;;;5117333;28;20807;-42
2023/11/27 00:55:54;;;;;;;4.93;4.43;;;6.50;99.90;;;;;;5117398;28;20425;-41
2023/11/27 00:58:20;;;;;;;4.97;4.47;;;6.60;1.00;;;;;;5116948;28;20180;-40
2023/11/27 01:00:45;;;;;;;4.37;3.97;;;6.20;99.90;;;;;;5116252;28;20209;-39
2023/11/27 01:03:11;;;;;;;5.40;4.90;;;5.80;1.00;;;;;;5117093;28;20188;-40
2023/11/27 01:05:37;;;;;;;4.60;3.87;;;5.30;99.90;;;;;;5116888;28;20271;-40
2023/11/27 01:08:04;;;;;;;4.37;3.70;;;4.80;1.00;;;;;;5116708;28;20199;-41
2023/11/27 01:10:31;;;;;;;4.80;3.60;;;4.40;1.00;;;;;;5115852;28;20426;-37
2023/11/27 01:12:57;;;;;;;5.83;3.97;;;4.10;1.00;;;;;;5117112;28;20430;-38
2023/11/27 01:15:22;;;;;;;4.87;4.47;;;3.70;99.90;;;;;;5117069;28;20506;-38
2023/11/27 01:17:48;;;;;;;4.70;4.20;;;3.50;99.90;;;;;;5117046;28;20565;-38
2023/11/27 01:20:14;;;;;;;5.23;4.20;;;3.40;1.00;;;;;;5116701;28;20175;-37
2023/11/27 01:22:40;;;;;;;4.67;4.27;;;3.20;1.00;;;;;;5117211;28;20275;-38
2023/11/27 01:25:06;;;;;;;5.43;4.10;;;3.10;1.00;;;;;;5116587;28;20203;-36
2023/11/27 01:27:32;;;;;;;5.13;4.23;;;2.90;99.90;;;;;;5117502;28;20432;-38
2023/11/27 01:29:58;;;;;;;5.17;4.67;;;2.80;99.90;;;;;;5115103;28;20426;-41
2023/11/27 01:32:27;;;;;;;6.93;4.50;;;2.60;99.90;;;;;;5114792;28;20424;-40
2023/11/27 01:34:53;;;;;;;5.37;4.30;;;2.50;1.00;;;;;;5114966;28;20430;-37
2023/11/27 01:37:19;;;;;;;5.77;4.30;;;2.50;1.00;;;;;;5114976;28;20432;-37
2023/11/27 01:39:44;;;;;;;8.03;3.93;;;2.40;1.00;;;;;;5114028;28;20421;-38
2023/11/27 01:42:10;;;;;;;5.13;3.70;;;2.40;1.00;;;;;;5114098;28;20418;-39
2023/11/27 01:44:36;;;;;;;6.67;4.57;;;2.30;1.00;;;;;;5114559;28;20462;-39
2023/11/27 01:47:02;;;;;;;5.97;4.87;;;2.30;1.00;;;;;;5115026;28;20192;-38
2023/11/27 01:49:28;;;;;;;7.70;4.70;;;2.20;1.00;;;;;;5114156;28;20425;-38
2023/11/27 01:51:54;;;;;;;7.30;4.73;;;2.10;7.60;;;;;;5095832;28;20651;-40
2023/11/27 01:54:20;;;;;;;4.27;3.70;;;2.10;44.80;;;;;;5114595;28;20265;-40
2023/11/27 01:56:48;;;;;;;6.57;4.70;;;2.20;39.10;;;;;;5113954;28;20416;-37
2023/11/27 01:59:14;;;;;;;6.70;4.20;;;2.00;17.70;;;;;;5115010;28;20172;-39
2023/11/27 02:01:39;;;;;;;4.93;4.53;;;2.00;95.00;;;;;;5115432;28;20417;-39
2023/11/27 02:04:05;;;;;;;6.43;4.60;;;2.00;99.90;;;;;;5114585;28;20493;-40
2023/11/27 02:06:31;;;;;;;6.93;4.90;;;2.00;99.90;;;;;;5096392;28;20207;-39
2023/11/27 02:08:56;;;;;;;6.07;4.90;;;2.00;88.40;;;;;;5114471;28;20537;-38
2023/11/27 02:11:24;;;;;;;4.93;4.53;;;2.00;87.10;;;;;;5115166;28;20251;-38
2023/11/27 02:13:50;;;;;;;4.37;3.93;;;2.00;69.40;;;;;;5115469;28;20190;-38
2023/11/27 02:16:16;;;;;;;8.50;4.40;;;2.00;99.90;;;;;;5115693;28;20532;-37
2023/11/27 02:18:42;;;;;;;5.30;4.70;;;2.00;99.90;;;;;;5098257;28;20191;-39
2023/11/27 02:21:08;;;;;;;6.17;4.40;;;2.00;83.40;;;;;;5097488;28;20797;-39
2023/11/27 02:23:34;;;;;;;8.60;4.90;;;2.00;62.20;;;;;;5119082;28;20191;-39
2023/11/27 02:26:00;;;;;;;5.17;4.33;;;2.00;69.40;;;;;;5119671;28;20527;-38
2023/11/27 02:28:25;;;;;;;7.10;4.00;;;2.10;26.70;;;;;;5120234;28;20520;-38
2023/11/27 02:30:51;;;;;;;5.03;4.10;;;2.00;3.60;;;;;;5119919;28;20316;-37
2023/11/27 02:33:16;;;;;;;5.07;4.43;;;1.90;74.00;;;;;;5120036;28;20176;-40
2023/11/27 02:35:42;;;;;;;5.93;4.10;;;2.00;99.90;;;;;;5120058;28;20179;-39
2023/11/27 02:38:08;;;;;;;6.20;4.27;;;2.00;99.90;;;;;;5119696;28;20634;-38
2023/11/27 02:40:33;;;;;;;6.67;4.53;;;2.00;99.90;;;;;;5120049;28;20187;-39
2023/11/27 02:42:59;;;;;;;6.97;5.00;;;2.00;56.30;;;;;;5101777;28;20180;-37
2023/11/27 02:45:25;;;;;;;5.90;3.63;;;2.00;44.50;;;;;;5119994;28;20207;-40
2023/11/27 02:47:51;;;;;;;5.77;4.13;;;2.00;42.20;;;;;;5119724;28;20507;-39
2023/11/27 02:50:18;;;;;;;4.43;3.90;;;2.00;18.00;;;;;;5119622;28;20417;-38
2023/11/27 02:52:45;;;;;;;5.67;4.30;;;2.00;15.10;;;;;;5120097;28;20251;-40
2023/11/27 02:55:11;;;;;;;7.97;4.03;;;2.00;15.20;;;;;;5119605;28;20429;-39
2023/11/27 02:57:37;;;;;;;6.83;4.27;;;2.00;28.70;;;;;;5101263;28;20436;-39
2023/11/27 03:00:08;;;;;;;4.80;3.50;;;2.10;7.30;;;;;;5119862;28;20522;-38
2023/11/27 03:02:33;;;;;;;5.80;3.60;;;2.10;1.60;;;;;;5118800;28;20508;-39
2023/11/27 03:04:59;;;;;;;3.80;3.40;;;2.10;1.20;;;;;;5119129;28;20515;-40
2023/11/27 03:07:24;;;;;;;4.33;3.93;;;2.10;1.00;;;;;;5119052;28;20199;-37
2023/11/27 03:09:50;;;;;;;5.00;3.77;;;2.10;3.10;;;;;;5119619;28;20249;-39
2023/11/27 03:12:16;;;;;;;4.37;3.90;;;2.10;1.00;;;;;;5118442;28;20180;-39
2023/11/27 03:14:41;;;;;;;3.87;3.17;;;2.10;1.00;;;;;;5084029;28;20184;-39
2023/11/27 03:17:07;;;;;;;4.63;3.80;;;2.10;1.00;;;;;;5119637;28;20180;-38
2023/11/27 03:19:37;;;;;;;6.47;3.80;;;2.10;1.00;;;;;;5118300;28;20176;-38
2023/11/27 03:22:03;;;;;;;6.20;3.60;;;2.20;1.00;;;;;;5118771;28;20183;-40
2023/11/27 03:24:28;;;;;;;4.53;3.40;;;2.20;1.00;;;;;;5119088;28;20698;-41
2023/11/27 03:26:54;;;;;;;3.87;3.03;;;2.20;1.00;;;;;;5119377;28;20176;-39
2023/11/27 03:29:19;;;;;;;3.23;2.90;;;2.20;1.00;;;;;;5119072;28;20188;-38
2023/11/27 03:31:45;;;;;;;5.40;2.87;;;2.20;1.00;;;;;;5096836;28;20271;-39
2023/11/27 03:34:10;;;;;;;3.93;3.00;;;2.20;1.00;;;;;;5097734;28;20172;-41
2023/11/27 03:36:36;;;;;;;5.23;3.20;;;2.20;1.00;;;;;;5097172;28;20245;-38
2023/11/27 03:39:03;;;;;;;3.80;3.30;;;2.20;1.00;;;;;;5097078;28;20176;-39
2023/11/27 03:41:28;;;;;;;4.70;3.80;;;2.20;1.00;;;;;;5096923;28;20271;-39
2023/11/27 03:43:54;;;;;;;5.40;3.43;;;2.20;1.00;;;;;;5097369;28;20521;-39
2023/11/27 03:46:20;;;;;;;3.30;3.00;;;2.20;1.00;;;;;;5097845;28;20208;-38
2023/11/27 03:48:46;;;;;;;3.87;2.83;;;2.20;1.00;;;;;;5097458;28;20164;-38
2023/11/27 03:51:11;;;;;;;7.10;3.47;;;2.20;1.00;;;;;;5097683;28;20976;-39
2023/11/27 03:53:37;;;;;;;3.50;3.20;;;2.20;1.00;;;;;;5096976;28;20183;-38
2023/11/27 03:56:04;;;;;;;3.87;3.47;;;2.20;1.00;;;;;;5096028;28;20188;-38
2023/11/27 03:58:30;;;;;;;4.07;3.00;;;2.20;1.00;;;;;;5096580;28;20225;-39
2023/11/27 04:00:57;;;;;;;3.90;2.80;;;2.20;1.00;;;;;;5096317;28;20654;-39
2023/11/27 04:03:23;;;;;;;6.00;2.93;;;2.20;1.00;;;;;;5096789;28;20838;-39
2023/11/27 04:05:49;;;;;;;3.40;2.53;;;2.20;1.00;;;;;;5097022;28;20501;-38
2023/11/27 04:08:14;;;;;;;4.20;3.00;;;2.20;1.00;;;;;;5097371;28;20525;-40
2023/11/27 04:10:41;;;;;;;4.10;3.10;;;2.20;1.00;;;;;;5097470;28;20424;-39
2023/11/27 04:13:07;;;;;;;4.30;3.47;;;2.30;1.00;;;;;;5097624;28;20265;-38
2023/11/27 04:15:33;;;;;;;4.90;3.60;;;2.30;1.00;;;;;;5097325;28;20457;-41
2023/11/27 04:18:00;;;;;;;3.47;3.00;;;2.30;1.00;;;;;;5095676;28;20427;-38
2023/11/27 04:20:26;;;;;;;3.73;3.17;;;2.30;1.00;;;;;;5096799;28;20430;-38
2023/11/27 04:22:51;;;;;;;7.67;2.97;;;2.20;1.00;;;;;;5097425;28;20693;-40
2023/11/27 04:25:17;;;;;;;4.97;3.33;;;2.20;1.00;;;;;;5096065;28;20352;-40
2023/11/27 04:27:43;;;;;;;4.43;3.37;;;2.20;1.00;;;;;;5097311;28;20165;-40
2023/11/27 04:30:08;;;;;;;3.77;3.23;;;2.20;1.00;;;;;;5094981;28;20224;-37
2023/11/27 04:32:34;;;;;;;3.70;3.40;;;2.20;1.00;;;;;;5095139;28;20173;-39
2023/11/27 04:35:00;;;;;;;7.50;3.57;;;2.10;1.00;;;;;;5095083;28;20453;-38
2023/11/27 04:37:26;;;;;;;4.20;3.33;;;2.10;99.90;;;;;;5096568;28;20173;-39
2023/11/27 04:39:51;;;;;;;4.37;3.17;;;2.10;99.90;;;;;;5095661;28;20410;-37
2023/11/27 04:42:20;;;;;;;4.30;3.40;;;2.10;99.90;;;;;;5094491;28;20322;-39
2023/11/27 04:44:46;;;;;;;5.60;4.30;;;2.10;1.00;;;;;;5096107;28;20455;-39
2023/11/27 04:47:12;;;;;;;4.43;4.00;;;2.10;99.90;;;;;;5096840;28;20430;-39
2023/11/27 04:49:37;;;;;;;3.87;3.50;;;2.10;99.90;;;;;;5096860;28;20180;-40
2023/11/27 04:52:04;;;;;;;3.60;3.20;;;2.10;99.90;;;;;;5095284;28;20268;-41
2023/11/27 04:54:30;;;;;;;4.20;3.53;;;2.10;99.90;;;;;;5095637;28;20203;-39
2023/11/27 04:56:56;;;;;;;5.57;3.40;;;2.10;99.90;;;;;;5094912;28;20540;-39
2023/11/27 04:59:22;;;;;;;4.00;3.60;;;2.10;99.90;;;;;;5093780;28;20529;-39
2023/11/27 05:01:47;;;;;;;4.67;2.63;;;2.00;99.90;;;;;;5094913;28;20427;-38
2023/11/27 05:04:17;;;;;;;3.33;3.03;;;2.00;27.90;;;;;;5095671;28;20612;-36
2023/11/27 05:06:44;;;;;;;3.23;2.33;;;2.00;23.40;;;;;;5096472;28;20244;-41
2023/11/27 05:09:11;;;;;;;3.20;2.87;;;1.90;99.90;;;;;;5095654;28;20482;-38
2023/11/27 05:11:38;;;;;;;3.57;3.20;;;1.90;99.90;;;;;;5094573;28;20605;-40
2023/11/27 05:14:04;;;;;;;3.50;3.10;;;1.90;99.90;;;;;;5091941;28;20788;-38
2023/11/27 05:16:29;;;;;;;3.23;2.60;;;1.90;99.90;;;;;;5093150;28;20537;-38
2023/11/27 05:18:55;;;;;;;4.40;3.10;;;1.90;99.90;;;;;;5093720;28;20177;-38
2023/11/27 05:21:21;;;;;;;4.37;2.90;;;2.00;99.90;;;;;;5093121;28;20210;-38
2023/11/27 05:23:47;;;;;;;4.97;2.23;;;2.00;99.90;;;;;;5093676;28;20463;-40
2023/11/27 05:29:34;;;;;;;4.20;2.30;;;2.10;48.70;;;;;;5094508;28;20470;-38
2023/11/27 05:32:07;;;;;;;2.80;2.47;;;2.10;1.00;;;;;;5112581;28;20477;-39
2023/11/27 05:34:33;;;;;;;2.90;2.60;;;2.10;1.00;;;;;;5113186;28;20548;-38
2023/11/27 05:36:59;;;;;;;3.77;2.67;;;2.00;1.00;;;;;;5113682;28;20495;-38
2023/11/27 05:39:25;;;;;;;2.30;2.10;;;1.90;1.00;;;;;;5113805;28;20446;-39
2023/11/27 05:41:52;;;;;;;2.70;2.50;;;1.90;1.00;;;;;;5113241;28;20502;-38
2023/11/27 05:44:17;;;;;;;2.53;2.33;;;1.90;1.00;;;;;;5112381;28;20194;-38
2023/11/27 05:46:43;;;;;;;2.47;2.20;;;1.90;55.10;;;;;;5115040;28;20417;-38
2023/11/27 05:49:09;;;;;;;4.00;2.50;;;1.90;99.90;;;;;;5114116;28;20572;-37
2023/11/27 05:51:39;;;;;;;3.07;2.73;;;1.90;99.90;;;;;;5114028;28;20492;-38
2023/11/27 05:54:06;;;;;;;4.07;3.03;;;2.00;30.00;;;;;;5111985;28;20202;-38
2023/11/27 05:56:32;;;;;;;3.63;2.53;;;1.90;1.00;;;;;;5115184;28;20432;-38
2023/11/27 05:58:57;;;;;;;3.60;2.97;;;2.00;23.00;;;;;;5114420;28;20634;-40
2023/11/27 06:01:23;;;;;;;5.30;2.83;;;2.00;1.00;;;;;;5115694;28;20187;-38
2023/11/27 06:03:48;;;;;;;3.00;2.67;;;2.00;1.00;;;;;;5114140;28;20176;-38
2023/11/27 06:06:14;;;;;;;5.13;3.53;;;1.90;1.30;;;;;;5112648;28;20227;-39
2023/11/27 06:08:41;;;;;;;4.77;3.50;;;1.90;6.30;;;;;;5112647;28;20190;-38
2023/11/27 06:11:07;;;;;;;3.27;2.97;;;2.00;75.80;;;;;;5093313;28;20593;-38
2023/11/27 06:13:34;;;;;;;3.23;2.93;;;2.00;83.10;;;;;;5094069;28;20414;-40
2023/11/27 06:16:00;;;;;;;3.33;2.97;;;2.00;99.50;;;;;;5094409;28;20438;-40
2023/11/27 06:18:26;;;;;;;6.23;3.30;;;2.10;85.90;;;;;;5092744;28;20717;-38
2023/11/27 06:20:52;;;;;;;3.43;3.13;;;2.10;95.00;;;;;;5091867;28;20855;-39
2023/11/27 06:23:17;;;;;;;4.03;3.40;;;2.10;30.60;;;;;;5091302;28;20194;-39
2023/11/27 06:25:43;;;;;;;4.77;3.30;;;2.10;1.00;;;;;;5073388;28;20223;-38
2023/11/27 06:28:13;;;;;;;4.33;3.50;;;2.20;1.00;;;;;;5074772;28;20176;-39
2023/11/27 06:30:41;;;;;;;4.20;3.50;;;2.10;1.00;;;;;;5090671;28;20640;-38
2023/11/27 06:33:06;;;;;;;4.90;3.87;;;2.10;1.00;;;;;;5077173;28;20487;-39
2023/11/27 06:35:32;;;;;;;7.70;3.87;;;2.10;1.00;;;;;;5092042;28;20490;-39
2023/11/27 06:37:58;;;;;;;6.37;4.10;;;2.10;1.20;;;;;;5093966;28;20195;-40
2023/11/27 06:40:24;;;;;;;4.90;3.40;;;2.10;99.90;;;;;;5095041;28;20404;-40
2023/11/27 06:42:50;;;;;;;5.10;4.00;;;2.10;99.90;;;;;;5094399;28;20180;-39
2023/11/27 06:45:16;;;;;;;5.33;3.90;;;2.10;99.90;;;;;;5094006;28;20474;-37
2023/11/27 06:47:42;;;;;;;6.20;4.17;;;2.10;99.90;;;;;;5092794;28;20540;-38
2023/11/27 06:50:08;;;;;;;8.67;4.60;;;2.10;99.90;;;;;;5091557;28;20536;-38
2023/11/27 06:52:33;;;;;;;5.60;3.73;;;2.10;99.90;;;;;;5091770;28;20172;-39
2023/11/27 06:54:59;;;;;;;4.13;3.70;;;2.10;99.90;;;;;;5075057;28;20278;-39
2023/11/27 06:57:25;;;;;;;4.90;4.20;;;2.10;99.90;;;;;;5094383;28;20621;-39
2023/11/27 06:59:51;;;;;;;5.43;4.70;;;2.20;99.90;;;;;;5094317;28;20528;-38
2023/11/27 07:02:16;;;;;;;10.57;4.50;;;2.20;88.20;;;;;;5094673;28;20183;-40
2023/11/27 07:04:42;;;;;;;7.80;4.90;;;2.20;99.90;;;;;;5092727;28;20283;-39
2023/11/27 07:07:09;;;;;;;6.50;4.30;;;2.20;99.90;;;;;;5093965;28;20529;-40
2023/11/27 07:09:35;;;;;;;6.70;4.40;;;2.20;19.40;;;;;;5093742;28;20787;-39
2023/11/27 07:12:01;;;;;;;7.97;4.67;;;2.20;99.90;;;;;;5094377;28;20481;-38
2023/11/27 07:14:26;;;;;;;7.50;3.90;;;2.30;41.60;;;;;;5096092;28;20476;-40
2023/11/27 07:16:52;;;;;;;5.40;4.10;;;2.30;1.00;;;;;;5094855;28;20418;-40
2023/11/27 07:19:18;;;;;;;5.23;4.70;;;2.30;1.00;;;;;;5097432;28;20181;-38
2023/11/27 07:21:43;;;;;;;6.47;4.23;;;2.30;1.00;;;;;;5097859;28;20176;-39
2023/11/27 07:24:09;;;;;;;8.10;5.30;;;2.30;1.00;;;;;;5099135;28;20184;-39
2023/11/27 07:26:35;;;;;;;5.33;4.73;;;2.30;1.00;;;;;;5097825;28;20273;-38
2023/11/27 07:29:01;;;;;;;7.97;4.43;;;2.40;1.00;;;;;;5078547;28;20278;-39
2023/11/27 07:31:27;;;;;;;6.33;4.60;;;2.40;1.00;;;;;;5080124;28;20569;-41
2023/11/27 07:33:55;;;;;;;10.33;4.80;;;2.40;1.00;;;;;;5096289;28;20270;-39
2023/11/27 07:36:22;;;;;;;7.87;5.13;;;2.50;1.00;;;;;;5096359;28;20487;-39
2023/11/27 07:38:48;;;;;;;5.60;4.37;;;2.50;1.00;;;;;;5096048;28;20421;-38
2023/11/27 07:41:14;;;;;;;8.73;5.40;;;2.60;1.00;;;;;;5096822;28;21059;-40
2023/11/27 07:43:41;;;;;;;7.40;4.97;;;2.60;1.00;;;;;;5096582;28;20422;-42
2023/11/27 07:46:12;;;;;;;7.20;5.63;;;2.60;1.00;;;;;;5096312;28;20469;-41
2023/11/27 07:48:39;;;;;;;8.43;5.40;;;2.70;1.00;;;;;;5096141;28;20475;-38
2023/11/27 07:51:05;;;;;;;5.77;5.17;;;2.70;99.90;;;;;;5097738;28;20431;-37
2023/11/27 07:53:31;;;;;;;7.97;4.40;;;2.70;99.90;;;;;;5097594;28;20433;-37
2023/11/27 07:55:56;;;;;;;7.70;5.03;;;2.70;99.90;;;;;;5096920;28;20816;-38
2023/11/27 07:58:22;;;;;;;4.77;4.27;;;2.70;1.00;;;;;;5095677;28;20216;-38
2023/11/27 08:00:48;;;;;;;7.17;4.50;;;2.80;1.00;;;;;;5094464;28;20172;-39
2023/11/27 08:03:13;;;;;;;6.50;5.43;;;2.70;99.90;;;;;;5094950;28;20297;-38
2023/11/27 08:05:40;;;;;;;6.00;5.30;;;2.80;99.90;;;;;;5095269;28;20203;-38
2023/11/27 08:08:08;;;;;;;5.43;4.83;;;2.80;99.90;;;;;;5094912;28;20592;-38
2023/11/27 08:10:37;;;;;;;6.70;5.07;;;2.90;99.90;;;;;;5094907;28;20454;-40
2023/11/27 08:13:04;;;;;;;5.27;4.53;;;2.90;51.70;;;;;;5094234;28;20450;-37
2023/11/27 08:15:30;;;;;;;7.80;5.07;;;2.90;99.90;;;;;;5096272;28;20472;-39
2023/11/27 08:17:56;;;;;;;7.27;5.13;;;2.90;17.80;;;;;;5096298;28;20430;-39
2023/11/27 08:20:28;;;;;;;7.77;4.50;;;2.90;1.00;;;;;;5095605;28;20832;-39
2023/11/27 08:22:54;;;;;;;8.47;5.00;;;2.90;1.00;;;;;;5093394;28;20187;-37
2023/11/27 08:25:19;;;;;;;5.60;4.83;;;3.00;1.00;;;;;;5094236;28;20786;-38
2023/11/27 08:27:46;;;;;;;5.53;4.17;;;2.90;1.00;;;;;;5092807;28;20840;-39
2023/11/27 08:30:12;;;;;;;6.47;5.20;;;3.00;1.00;;;;;;5094175;28;20232;-38
2023/11/27 08:32:39;;;;;;;7.40;5.57;;;3.00;99.90;;;;;;5093813;28;20509;-39
2023/11/27 08:35:05;;;;;;;6.10;4.50;;;3.00;99.90;;;;;;5058968;28;20483;-39
2023/11/27 08:37:35;;;;;;;6.47;4.67;;;3.00;1.00;;;;;;5075051;28;20731;-38
2023/11/27 08:40:08;;;;;;;5.63;4.87;;;3.10;1.00;;;;;;5093939;28;20436;-40
2023/11/27 08:42:35;;;;;;;8.67;5.37;;;3.20;99.90;;;;;;5076791;28;20533;-39
2023/11/27 08:45:10;;;;;;;9.03;4.90;;;3.30;1.00;;;;;;5094744;28;20728;-38
2023/11/27 08:47:39;;;;;;;6.17;4.60;;;3.30;1.00;;;;;;5094492;28;20413;-38
2023/11/27 08:50:09;;;;;;;6.10;5.50;;;3.40;1.00;;;;;;5078667;28;20833;-40
2023/11/27 08:52:35;;;;;;;5.33;4.63;;;3.40;1.00;;;;;;5095823;28;20414;-39
2023/11/27 08:55:01;;;;;;;7.00;4.87;;;3.40;1.00;;;;;;5096011;28;20809;-39
2023/11/27 08:57:27;;;;;;;7.43;4.60;;;3.40;1.00;;;;;;5096907;28;20274;-38
2023/11/27 08:59:52;;;;;;;7.17;5.23;;;3.50;99.90;;;;;;5095157;28;20489;-38
2023/11/27 09:02:18;;;;;;;7.37;5.50;;;3.40;1.00;;;;;;5075687;28;20168;-39
2023/11/27 09:04:43;;;;;;;5.23;4.73;;;3.40;99.90;;;;;;5093004;28;20173;-38
2023/11/27 09:07:11;;;;;;;6.20;4.87;;;3.40;99.90;;;;;;5095088;28;20177;-39
2023/11/27 09:09:38;;;;;;;5.67;4.50;;;3.40;99.90;;;;;;5094017;28;20212;-38
2023/11/27 09:12:04;;;;;;;4.43;4.00;;;3.40;17.10;;;;;;5093688;28;20674;-38
2023/11/27 09:14:31;;;;;;;4.37;3.93;;;3.50;1.00;;;;;;5095325;28;20241;-39
2023/11/27 09:16:56;;;;;;;5.50;4.63;;;3.50;1.00;;;;;;5097642;28;20434;-38
2023/11/27 09:19:22;;;;;;;7.37;4.83;;;3.50;1.00;;;;;;5080129;28;20715;-39
2023/11/27 09:21:48;;;;;;;6.57;4.70;;;3.60;1.00;;;;;;5097308;28;20212;-37
2023/11/27 09:24:14;;;;;;;10.33;7.20;;;3.70;1.00;;;;;;5094353;28;20259;-42
2023/11/27 09:26:40;;;;;;;10.40;5.40;;;5.00;1.00;;;;;;5091175;28;20561;-41
2023/11/27 09:29:05;;;;;;;5.73;4.03;;;5.60;1.00;;;;;;5074744;28;20570;-39
2023/11/27 09:31:33;;;;;;;5.00;4.60;;;5.60;99.90;;;;;;5092763;28;20258;-38
2023/11/27 09:33:59;;;;;;;6.00;4.70;;;5.30;99.90;;;;;;5076446;28;20255;-39
2023/11/27 09:36:26;;;;;;;4.60;4.20;;;4.90;1.00;;;;;;5091461;28;20974;-38
2023/11/27 09:38:52;;;;;;;4.80;4.10;;;4.60;1.00;;;;;;5090961;28;20597;-38
2023/11/27 09:41:17;;;;;;;7.87;5.43;;;4.40;1.00;;;;;;5057470;28;20418;-36
2023/11/27 09:43:43;;;;;;;6.27;5.27;;;4.30;55.20;;;;;;5074675;28;20180;-38
2023/11/27 09:46:17;;;;;;;6.40;4.67;;;4.20;99.90;;;;;;5076418;28;20238;-37
2023/11/27 09:48:44;;;;;;;7.50;6.20;;;4.10;99.90;;;;;;5076064;28;20418;-39
2023/11/27 09:51:13;;;;;;;7.13;6.30;;;3.90;1.00;;;;;;5094351;28;20429;-38
2023/11/27 09:53:54;;;;;;;8.10;5.13;;;3.80;99.90;;;;;;5094435;28;20410;-38
2023/11/27 09:56:27;;;;;;;5.77;4.97;;;3.70;1.00;;;;;;5095383;28;20470;-39
2023/11/27 09:58:56;;;;;;;6.00;5.03;;;3.80;1.00;;;;;;5061198;28;20525;-38
2023/11/27 10:01:27;;;;;;;7.23;5.20;;;3.70;1.00;;;;;;5094924;28;20415;-39
2023/11/27 10:03:58;;;;;;;6.00;4.60;;;3.70;36.60;;;;;;5077800;28;20435;-39
2023/11/27 10:06:31;;;;;;;5.90;5.30;;;3.70;99.90;;;;;;5075207;28;20526;-40
2023/11/27 10:09:09;;;;;;;7.33;4.90;;;3.80;1.00;;;;;;5092989;28;20655;-39
2023/11/27 10:11:36;;;;;;;5.83;4.10;;;3.90;1.00;;;;;;5093461;28;20430;-38
2023/11/27 10:14:05;;;;;;;6.23;5.03;;;3.90;99.90;;;;;;5059118;28;20600;-38
2023/11/27 10:16:35;;;;;;;5.57;4.63;;;3.80;1.00;;;;;;5092754;28;20434;-39
2023/11/27 10:19:07;;;;;;;5.93;4.90;;;3.80;1.00;;;;;;5073841;28;20487;-40
2023/11/27 10:21:36;;;;;;;6.20;4.83;;;3.80;1.00;;;;;;5091843;28;20426;-40
2023/11/27 10:24:10;;;;;;;5.23;4.47;;;4.00;99.90;;;;;;5094434;28;20437;-38
2023/11/27 10:26:40;;;;;;;6.93;4.93;;;4.10;56.00;;;;;;5094963;28;20871;-40
2023/11/27 10:29:07;;;;;;;7.13;4.93;;;4.10;99.90;;;;;;5076318;28;20502;-38
2023/11/27 10:31:33;;;;;;;9.47;5.50;;;4.10;1.00;;;;;;5057428;28;20644;-39
2023/11/27 10:33:59;;;;;;;6.17;4.87;;;4.10;99.90;;;;;;5053480;28;20474;-36
2023/11/27 10:36:25;;;;;;;5.67;4.77;;;4.20;1.00;;;;;;5054366;28;20574;-38
2023/11/27 10:39:00;;;;;;;7.33;5.40;;;4.30;99.90;;;;;;5053316;28;20427;-38
2023/11/27 10:41:28;;;;;;;7.23;5.63;;;4.40;1.00;;;;;;5054142;28;20822;-39
2023/11/27 10:43:54;;;;;;;8.23;5.70;;;4.40;99.90;;;;;;5055434;28;20836;-38
2023/11/27 10:46:20;;;;;;;8.33;6.43;;;4.50;1.00;;;;;;5055584;28;20537;-39
2023/11/27 10:48:47;;;;;;;9.17;5.03;;;4.50;1.00;;;;;;5056424;28;20432;-39
2023/11/27 10:51:13;;;;;;;8.10;6.97;;;4.60;99.90;;;;;;5057307;28;20845;-39
2023/11/27 10:53:39;;;;;;;7.60;5.97;;;4.40;1.00;;;;;;5056932;28;20408;-39
2023/11/27 10:56:06;;;;;;;8.33;5.90;;;4.50;1.00;;;;;;5039462;28;20463;-39
2023/11/27 10:58:33;;;;;;;9.37;5.20;;;4.70;12.40;;;;;;5055944;28;20469;-38
2023/11/27 11:01:01;;;;;;;14.00;8.50;;;4.80;99.90;;;;;;5059661;28;20432;-40
2023/11/27 11:03:30;;;;;;;8.80;6.70;;;4.90;1.00;;;;;;5055982;28;20446;-39
2023/11/27 11:05:57;;;;;;;12.00;7.77;;;5.30;1.00;;;;;;5039914;28;20650;-38
2023/11/27 11:08:28;;;;;;;9.67;5.83;;;5.50;99.90;;;;;;5056979;28;20814;-39
2023/11/27 11:10:55;;;;;;;4.93;4.30;;;5.80;1.00;;;;;;5057648;28;20570;-40
2023/11/27 11:13:24;;;;;;;8.67;5.50;;;5.70;1.00;;;;;;5054410;28;20554;-40
2023/11/27 11:16:13;;;;;;;7.27;5.20;;;5.60;1.00;;;;;;5054206;28;20463;-39
2023/11/27 11:19:06;;;;;;;7.00;5.50;;;5.50;1.00;;;;;;5055529;28;20639;-40
2023/11/27 11:21:55;;;;;;;5.57;4.67;;;5.40;1.00;;;;;;5054750;28;20451;-39
2023/11/27 11:24:27;;;;;;;5.20;4.20;;;5.30;1.00;;;;;;5055035;28;20428;-40
2023/11/27 11:27:07;;;;;;;5.07;3.83;;;5.20;8.40;;;;;;5055256;28;20554;-39
2023/11/27 11:29:34;;;;;;;5.73;4.10;;;5.20;1.00;;;;;;5053224;28;20411;-40
2023/11/27 11:32:08;;;;;;;6.53;4.10;;;5.10;1.00;;;;;;5076162;28;20759;-39
2023/11/27 11:34:38;;;;;;;4.53;3.27;;;4.90;42.50;;;;;;5078140;28;20446;-38
2023/11/27 11:37:06;;;;;;;6.83;3.83;;;4.80;94.40;;;;;;5061978;28;20724;-39
2023/11/27 11:39:32;;;;;;;3.17;2.70;;;4.80;99.90;;;;;;5095914;28;20642;-39
2023/11/27 11:42:02;;;;;;;5.07;3.30;;;4.70;60.90;;;;;;5096073;28;20454;-38
2023/11/27 11:44:29;;;;;;;5.47;3.27;;;4.70;99.90;;;;;;5096544;28;20417;-38
2023/11/27 11:46:55;;;;;;;8.70;3.00;;;4.80;99.90;;;;;;5097379;28;20474;-39
2023/11/27 11:49:25;;;;;;;3.13;2.67;;;4.80;99.90;;;;;;5097711;28;20415;-40
2023/11/27 11:52:15;;;;;;;3.13;2.80;;;4.80;99.90;;;;;;5079870;28;20169;-38
2023/11/27 11:54:41;;;;;;;5.60;4.10;;;4.90;99.90;;;;;;5077963;28;20511;-40
2023/11/27 11:57:21;;;;;;;4.03;3.50;;;4.80;47.50;;;;;;5096898;28;20609;-40
2023/11/27 11:59:50;;;;;;;5.90;2.47;;;4.70;96.20;;;;;;5096199;28;20410;-42
2023/11/27 12:02:21;;;;;;;3.63;2.77;;;4.70;1.00;;;;;;5095034;28;20413;-39
2023/11/27 12:04:51;;;;;;;4.60;2.10;;;4.60;99.90;;;;;;5094942;28;20414;-39
2023/11/27 12:07:18;;;;;;;4.37;2.60;;;4.60;99.90;;;;;;5093633;28;20722;-41
2023/11/27 12:09:49;;;;;;;5.23;2.33;;;4.60;99.90;;;;;;5093361;28;20703;-39
2023/11/27 12:12:20;;;;;;;2.00;1.80;;;4.60;99.90;;;;;;5090373;28;20415;-39
2023/11/27 12:14:47;;;;;;;2.67;2.17;;;4.60;99.90;;;;;;5073745;28;20646;-41
2023/11/27 12:17:15;;;;;;;4.10;2.13;;;4.60;99.90;;;;;;5094129;28;20704;-41
2023/11/27 12:19:45;;;;;;;2.67;1.70;;;4.60;99.90;;;;;;5094121;28;20705;-39
2023/11/27 12:22:12;;;;;;;2.70;1.50;;;4.60;99.90;;;;;;5077300;28;20475;-41
2023/11/27 12:24:43;;;;;;;2.90;1.60;;;4.60;99.90;;;;;;5075363;28;20729;-40
2023/11/27 12:27:09;;;;;;;3.00;1.50;;;4.60;99.90;;;;;;5058569;28;20450;-38
2023/11/27 12:29:35;;;;;;;1.93;1.20;;;4.60;99.90;;;;;;5092181;28;20855;-40
2023/11/27 12:32:00;;;;;;;1.60;1.20;;;4.50;99.90;;;;;;5092596;28;20236;-39
2023/11/27 12:34:26;;;;;;;1.70;1.10;;;4.50;1.00;;;;;;5094867;28;20197;-39
2023/11/27 12:36:55;;;;;;;1.60;1.07;;;4.50;1.00;;;;;;5090962;28;20283;-39
2023/11/27 12:39:26;;;;;;;1.30;1.07;;;4.40;1.00;;;;;;5093343;28;20191;-38
2023/11/27 12:42:01;;;;;;;3.43;1.43;;;4.40;1.00;;;;;;5077771;28;20414;-39
2023/11/27 12:44:31;;;;;;;1.90;1.53;;;4.40;58.60;;;;;;5077970;28;20405;-38
2023/11/27 12:46:59;;;;;;;3.70;1.20;;;4.40;99.90;;;;;;5093901;28;20737;-38
2023/11/27 12:49:26;;;;;;;2.50;1.53;;;4.40;99.90;;;;;;5094145;28;20429;-38
2023/11/27 12:52:10;;;;;;;1.40;1.20;;;4.30;1.00;;;;;;5079064;28;20529;-40
2023/11/27 12:54:36;;;;;;;1.90;1.50;;;4.20;1.00;;;;;;5095483;28;20421;-37
2023/11/27 12:57:06;;;;;;;1.47;0.93;;;4.10;12.30;;;;;;5093106;28;20831;-37
2023/11/27 12:59:46;;;;;;;2.90;1.20;;;4.10;99.90;;;;;;5094093;28;20700;-39
2023/11/27 13:02:18;;;;;;;3.00;1.50;;;4.10;99.90;;;;;;5095182;28;20450;-38
2023/11/27 13:04:43;;;;;;;1.53;1.10;;;4.10;99.90;;;;;;5093882;28;20577;-38
2023/11/27 13:07:09;;;;;;;1.87;1.20;;;4.10;99.90;;;;;;5094626;28;20438;-38